Data for 01/31/2009

Time Sea-Level Adjusted Pressure Absolute Pressure Temperature Relative Humidity Dew Point   
(mb) (inHg) (mb) (inHg) (C) (F) (%) (C) (F)
00:05 1017 30.03 846 24.98 -0.2 31.6 42 -11.5 11.2
00:10 1017 30.03 846 24.98 -0.1 31.8 44 -11.1 12.1
00:15 1017 30.03 846 24.98 -0.4 31.2 45 -11.1 12
00:20 1017 30.03 846 24.98 -0.6 30.9 45 -11 12.1
00:25 1017 30.03 846 24.98 -1 30.2 47 -11.1 12.1
00:30 1016 30 846 24.98 -0.8 30.5 45 -11.4 11.5
00:35 1016 30 846 24.98 -0.6 31 43 -11.5 11.3
00:40 1016 30 846 24.98 -0.8 30.6 46 -10.9 12.4
00:45 1016 30 845 24.95 -0.9 30.4 45 -11.4 11.5
00:50 1016 30 845 24.95 -0.8 30.5 49 -10.4 13.3
00:55 1016 30 845 24.95 -1.6 29.1 49 -11 12.1
01:00 1016 30 845 24.95 -1.7 28.9 48 -11.3 11.6
01:05 1016 30 845 24.95 -1.3 29.7 45 -11.7 10.9
01:10 1016 30 845 24.95 -0.3 31.4 41 -12.1 10.2
01:15 1016 30 845 24.95 0.8 33.4 37 -12.4 9.7
01:20 1015 29.97 845 24.95 1.2 34.1 40 -11 12.2
01:25 1015 29.97 845 24.95 1.2 34.1 40 -11 12.2
01:30 1015 29.97 844 24.92 0.7 33.3 39 -11.8 10.8
01:35 1015 29.97 844 24.92 0.4 32.8 44 -10.5 13.2
01:40 1015 29.97 844 24.92 -0.9 30.3 38 -13.6 7.6
01:45 1015 29.97 844 24.92 2.9 37.2 29 -13.6 7.6
01:50 1015 29.97 844 24.92 4 39.3 28 -12.7 9.2
01:55 1015 29.97 844 24.92 4 39.2 28 -12.9 8.7
02:00 1015 29.97 844 24.92 4.2 39.6 29 -12.3 9.8
02:05 1015 29.97 844 24.92 3.9 38.9 29 -12.5 9.6
02:10 1015 29.97 844 24.92 3.9 39.1 29 -12.4 9.7
02:15 1015 29.97 844 24.92 4 39.2 29 -12.6 9.4
02:20 1015 29.97 844 24.92 3.8 38.9 29 -12.8 9
02:25 1015 29.97 844 24.92 4.1 39.4 28 -13 8.5
02:30 1015 29.97 844 24.92 4.1 39.4 29 -12.2 10
02:35 1015 29.97 844 24.92 3.7 38.7 29 -12.9 8.7
02:40 1015 29.97 844 24.92 4 39.1 28 -13.1 8.4
02:45 1015 29.97 844 24.92 4.4 39.8 27 -13.2 8.2
02:50 1015 29.97 844 24.92 4.8 40.7 25 -13.5 7.6
02:55 1015 29.97 844 24.92 5.3 41.5 25 -13.5 7.7
03:00 1015 29.97 844 24.92 5.4 41.7 27 -12.1 10.2
03:05 1015 29.97 844 24.92 3.9 38.9 32 -11.5 11.2
03:10 1015 29.97 844 24.92 2.7 36.9 32 -12.4 9.7
03:15 1015 29.97 844 24.92 2.7 36.9 32 -12.6 9.4
03:20 1014 29.94 844 24.92 3.2 37.7 28 -13.7 7.4
03:25 1014 29.94 844 24.92 4.2 39.5 26 -13.5 7.6
03:30 1014 29.94 844 24.92 4.9 40.9 24 -14 6.8
03:35 1014 29.94 844 24.92 5.4 41.6 24 -13.8 7.2
03:40 1014 29.94 843 24.89 5.4 41.7 24 -13.6 7.5
03:45 1014 29.94 843 24.89 5.4 41.8 24 -13.4 7.8
03:50 1014 29.94 843 24.89 5.5 41.9 25 -13.1 8.5
03:55 1014 29.94 843 24.89 5.4 41.7 26 -12.7 9.1
04:00 1014 29.94 843 24.89 5.1 41.2 26 -12.9 8.7
04:05 1014 29.94 843 24.89 5.1 41.2 27 -12.6 9.3
04:10 1014 29.94 843 24.89 4.9 40.8 27 -12.8 9
04:15 1014 29.94 843 24.89 4.9 40.9 28 -12.4 9.7
04:20 1014 29.94 843 24.89 4.8 40.6 28 -12.2 10
04:25 1014 29.94 843 24.89 4.6 40.3 28 -12.4 9.7
04:30 1014 29.94 843 24.89 4.7 40.5 28 -12.5 9.6
04:35 1014 29.94 843 24.89 4.8 40.7 28 -12.3 9.9
04:40 1014 29.94 843 24.89 4.8 40.6 28 -12.3 9.8
04:45 1013 29.91 843 24.89 5.3 41.5 27 -12.4 9.7
04:50 1013 29.91 843 24.89 5 41 29 -11.8 10.8
04:55 1013 29.91 842 24.86 4.5 40.2 29 -12.3 9.9
05:00 1013 29.91 842 24.86 4.7 40.5 29 -11.8 10.7
05:05 1013 29.91 842 24.86 4.9 40.7 28 -12.1 10.2
05:10 1013 29.91 842 24.86 5.2 41.3 27 -12.1 10.1
05:15 1013 29.91 842 24.86 5.4 41.8 27 -12.3 9.9
05:20 1013 29.91 842 24.86 5.6 42 27 -11.8 10.7
05:25 1013 29.91 842 24.86 5.6 42.2 26 -12.3 9.9
05:30 1013 29.91 842 24.86 5.6 42.2 27 -11.9 10.5
05:35 1013 29.91 842 24.86 5.5 41.8 28 -11.6 11.1
05:40 1013 29.91 842 24.86 5.3 41.6 29 -11.4 11.5
05:45 1013 29.91 842 24.86 5.2 41.4 28 -11.8 10.8
05:50 1013 29.91 842 24.86 5.3 41.6 29 -11.4 11.5
05:55 1013 29.91 842 24.86 5.2 41.4 29 -11.5 11.2
06:00 1013 29.91 842 24.86 5.2 41.3 28 -11.9 10.6
06:05 1013 29.91 842 24.86 5.5 41.9 27 -11.9 10.6
06:10 1013 29.91 842 24.86 5.6 42 27 -11.9 10.6
06:15 1013 29.91 842 24.86 5.5 41.9 28 -11.8 10.7
06:20 1013 29.91 842 24.86 5.4 41.8 27 -12.1 10.3
06:25 1013 29.91 842 24.86 5.5 41.9 28 -11.6 11.2
06:30 1013 29.91 842 24.86 5.3 41.5 28 -11.9 10.5
06:35 1013 29.91 842 24.86 5.3 41.5 28 -11.9 10.5
06:40 1013 29.91 842 24.86 5.3 41.5 28 -11.7 10.9
06:45 1013 29.91 842 24.86 5.2 41.3 29 -11.7 10.9
06:50 1013 29.91 842 24.86 5.1 41.1 28 -11.8 10.8
06:55 1013 29.91 843 24.89 4.9 40.9 29 -11.6 11.2
07:00 1013 29.91 843 24.89 4.9 40.7 30 -11.4 11.4
07:05 1013 29.91 843 24.89 4.6 40.3 30 -11.6 11.2
07:10 1013 29.91 843 24.89 4.7 40.4 30 -11.6 11.1
07:15 1014 29.94 843 24.89 4.6 40.3 30 -11.7 11
07:20 1014 29.94 843 24.89 4.7 40.4 30 -11.7 11
07:25 1014 29.94 843 24.89 4.5 40.2 31 -11.3 11.7
07:30 1014 29.94 843 24.89 4.3 39.7 30 -11.8 10.7
07:35 1014 29.94 843 24.89 4.3 39.7 31 -11.4 11.5
07:40 1014 29.94 843 24.89 4 39.3 31 -11.6 11.2
07:45 1014 29.94 843 24.89 4 39.2 31 -11.7 10.9
07:50 1014 29.94 843 24.89 3.9 39 31 -11.6 11.1
07:55 1014 29.94 843 24.89 3.8 38.8 31 -11.7 10.9
08:00 1014 29.94 844 24.92 3.7 38.7 32 -11.4 11.5
08:05 1014 29.94 844 24.92 3.1 37.5 35 -11.1 12.1
08:10 1014 29.94 844 24.92 2.6 36.6 36 -11.2 11.9
08:15 1014 29.94 844 24.92 2.8 37.1 33 -11.9 10.5
08:20 1014 29.94 844 24.92 3.3 37.9 33 -11.6 11.1
08:25 1014 29.94 844 24.92 3.3 38 32 -12 10.5
08:30 1014 29.94 844 24.92 3.7 38.7 31 -12 10.3
08:35 1014 29.94 844 24.92 4 39.1 30 -12.1 10.2
08:40 1014 29.94 844 24.92 4.3 39.7 28 -12.6 9.3
08:45 1014 29.94 844 24.92 4.6 40.3 27 -12.7 9.2
08:50 1014 29.94 844 24.92 4.8 40.7 27 -12.5 9.5
08:55 1014 29.94 844 24.92 5 41 27 -12.7 9.1
09:00 1014 29.94 844 24.92 5.1 41.2 26 -12.7 9.1
09:05 1015 29.97 844 24.92 5.2 41.4 27 -12.4 9.7
09:10 1014 29.94 844 24.92 5.2 41.4 27 -12.3 9.9
09:15 1014 29.94 844 24.92 5.2 41.4 27 -12.3 9.8
09:20 1014 29.94 844 24.92 5.4 41.7 27 -12.2 10
09:25 1014 29.94 844 24.92 5.6 42 27 -12.1 10.3
09:30 1015 29.97 844 24.92 5.6 42.2 27 -12.1 10.2
09:35 1015 29.97 844 24.92 5.8 42.4 27 -12 10.4
09:40 1015 29.97 844 24.92 5.9 42.6 26 -12.1 10.2
09:45 1015 29.97 844 24.92 5.9 42.7 27 -11.6 11.1
09:50 1015 29.97 844 24.92 5.8 42.5 26 -12.2 10
09:55 1015 29.97 844 24.92 6 42.7 27 -11.9 10.6
10:00 1015 29.97 844 24.92 6.1 42.9 26 -12.2 10
10:05 1015 29.97 844 24.92 6 42.7 26 -12.1 10.3
10:10 1015 29.97 844 24.92 6.1 43 27 -11.4 11.5
10:15 1015 29.97 844 24.92 6 42.7 27 -11.8 10.8
10:20 1015 29.97 844 24.92 5.9 42.5 27 -11.8 10.8
10:25 1015 29.97 844 24.92 5.9 42.5 27 -11.6 11
10:30 1015 29.97 844 24.92 5.9 42.6 27 -11.6 11.1
10:35 1015 29.97 844 24.92 6 42.8 28 -11.1 11.9
10:40 1015 29.97 844 24.92 5.7 42.2 28 -11.4 11.5
10:45 1015 29.97 844 24.92 5.5 42 29 -11.1 12
10:50 1014 29.94 844 24.92 5.9 42.5 30 -10.6 13
10:55 1014 29.94 844 24.92 6.1 43 29 -10.6 12.9
11:00 1014 29.94 844 24.92 6 42.7 30 -10.5 13.2
11:05 1014 29.94 844 24.92 6.2 43.2 30 -10.1 13.8
11:10 1014 29.94 844 24.92 5.9 42.7 30 -10.2 13.6
11:15 1014 29.94 844 24.92 5.6 42.2 31 -10.1 13.7
11:20 1014 29.94 844 24.92 5.6 42.1 31 -10.1 13.8
11:25 1014 29.94 843 24.89 6.2 43.1 32 -9.4 15.1
11:30 1014 29.94 843 24.89 6.6 43.8 31 -9.4 15.2
11:35 1014 29.94 843 24.89 7 44.5 31 -9.2 15.5
11:40 1014 29.94 843 24.89 7.3 45.1 30 -9.3 15.2
11:45 1014 29.94 843 24.89 6.9 44.4 30 -9.5 14.9
11:50 1014 29.94 843 24.89 6.5 43.8 31 -9.5 15
11:55 1014 29.94 843 24.89 6.6 43.9 31 -9.5 14.9
12:00 1014 29.94 843 24.89 6.6 43.9 31 -9.5 14.9
12:05 1014 29.94 843 24.89 6.3 43.3 31 -9.6 14.7
12:10 1014 29.94 843 24.89 6.1 42.9 32 -9.4 15
12:15 1014 29.94 843 24.89 5.9 42.6 32 -9.7 14.6
12:20 1014 29.94 843 24.89 6 42.9 31 -10 14
12:25 1014 29.94 843 24.89 5.8 42.5 31 -9.9 14.2
12:30 1014 29.94 843 24.89 5.7 42.2 32 -9.6 14.7
12:35 1014 29.94 843 24.89 6.1 43 31 -9.7 14.6
12:40 1014 29.94 843 24.89 6.7 44 31 -9.5 15
12:45 1014 29.94 843 24.89 6.6 43.9 31 -9.4 15.1
12:50 1013 29.91 843 24.89 6.5 43.7 32 -9.1 15.6
12:55 1013 29.91 843 24.89 6.4 43.4 31 -9.6 14.8
13:00 1013 29.91 842 24.86 6.3 43.3 29 -10.3 13.4
13:05 1013 29.91 842 24.86 6.1 43.1 30 -10 13.9
13:10 1013 29.91 842 24.86 6.1 43.1 31 -9.8 14.4
13:15 1013 29.91 842 24.86 6.5 43.6 30 -10 14.1
13:20 1013 29.91 842 24.86 6.5 43.7 31 -9.3 15.2
13:25 1013 29.91 842 24.86 6.4 43.6 31 -9.7 14.6
13:30 1013 29.91 842 24.86 6.3 43.4 31 -9.6 14.7
13:35 1013 29.91 842 24.86 6.4 43.5 30 -10 14
13:40 1013 29.91 842 24.86 6.5 43.7 30 -9.9 14.3
13:45 1013 29.91 842 24.86 6.5 43.8 30 -9.8 14.4
13:50 1013 29.91 842 24.86 6.5 43.7 30 -9.7 14.6
13:55 1013 29.91 842 24.86 6.3 43.3 29 -10.7 12.8
14:00 1013 29.91 842 24.86 6.2 43.1 29 -10.6 12.9
14:05 1013 29.91 842 24.86 6.2 43.1 29 -10.6 13
14:10 1013 29.91 842 24.86 6.3 43.3 30 -10.1 13.8
14:15 1013 29.91 842 24.86 6.4 43.6 28 -10.6 12.9
14:20 1013 29.91 842 24.86 6.2 43.2 29 -10.5 13.2
14:25 1013 29.91 842 24.86 6.1 43 29 -10.6 12.9
14:30 1013 29.91 842 24.86 5.9 42.6 29 -10.7 12.8
14:35 1013 29.91 842 24.86 5.6 42.1 31 -10.4 13.3
14:40 1013 29.91 842 24.86 5.6 42.1 30 -10.8 12.6
14:45 1013 29.91 842 24.86 5.8 42.4 30 -10.6 12.9
14:50 1013 29.91 842 24.86 5.7 42.2 29 -11 12.3
14:55 1013 29.91 842 24.86 5.7 42.2 29 -11.1 12
15:00 1013 29.91 842 24.86 5.8 42.5 29 -11 12.2
15:05 1013 29.91 842 24.86 6 42.8 29 -10.8 12.6
15:10 1013 29.91 842 24.86 6 42.8 31 -10 14.1
15:15 1013 29.91 842 24.86 5.8 42.4 29 -11 12.1
15:20 1013 29.91 842 24.86 5.5 41.9 29 -11.3 11.7
15:25 1013 29.91 842 24.86 5.3 41.6 27 -12.2 10
15:30 1013 29.91 842 24.86 5.2 41.4 25 -13.2 8.2
15:35 1013 29.91 842 24.86 5 41 26 -12.9 8.8
15:40 1013 29.91 842 24.86 4.8 40.6 27 -12.9 8.9
15:45 1013 29.91 843 24.89 4.7 40.4 26 -13.2 8.2
15:50 1014 29.94 843 24.89 4.6 40.2 27 -12.8 9
15:55 1013 29.91 843 24.89 4.4 39.9 27 -12.9 8.8
16:00 1014 29.94 843 24.89 4.3 39.7 27 -13 8.5
16:05 1014 29.94 843 24.89 4.2 39.5 28 -12.8 9
16:10 1014 29.94 843 24.89 4.1 39.3 28 -12.9 8.7
16:15 1014 29.94 843 24.89 4 39.2 27 -13.2 8.3
16:20 1014 29.94 843 24.89 3.9 39 27 -13.7 7.4
16:25 1014 29.94 843 24.89 3.8 38.9 27 -13.6 7.4
16:30 1014 29.94 843 24.89 3.8 38.8 27 -13.5 7.7
16:35 1014 29.94 843 24.89 3.7 38.6 27 -13.6 7.5
16:40 1014 29.94 843 24.89 3.6 38.4 28 -13.3 8.1
16:45 1014 29.94 843 24.89 3.5 38.3 30 -12.7 9.1
16:50 1014 29.94 843 24.89 3.4 38.1 29 -13.1 8.5
16:55 1014 29.94 843 24.89 3.3 37.9 30 -12.7 9.1
17:00 1014 29.94 843 24.89 3.1 37.6 30 -12.9 8.8
17:05 1014 29.94 843 24.89 3 37.4 29 -13.3 8.1
17:10 1014 29.94 843 24.89 2.9 37.2 29 -13.4 7.9
17:15 1014 29.94 843 24.89 2.8 37.1 29 -13.7 7.3
17:20 1014 29.94 843 24.89 2.7 36.9 29 -13.7 7.3
17:25 1014 29.94 844 24.92 2.6 36.7 29 -13.9 6.9
17:30 1014 29.94 844 24.92 2.5 36.4 29 -13.7 7.4
17:35 1014 29.94 844 24.92 2.3 36.2 30 -13.8 7.2
17:40 1014 29.94 844 24.92 2.2 36 29 -14.2 6.5
17:45 1014 29.94 844 24.92 2.2 36 29 -14.3 6.3
17:50 1015 29.97 844 24.92 2.2 36 29 -14.1 6.6
17:55 1015 29.97 844 24.92 2.1 35.8 30 -13.9 7
18:00 1015 29.97 844 24.92 1.9 35.5 31 -13.6 7.5
18:05 1015 29.97 844 24.92 1.8 35.2 31 -13.6 7.5
18:10 1015 29.97 844 24.92 1.7 35 31 -13.6 7.5
18:15 1015 29.97 844 24.92 1.6 34.9 32 -13.3 8
18:20 1015 29.97 844 24.92 1.4 34.6 35 -12.5 9.6
18:25 1015 29.97 844 24.92 0.7 33.2 41 -11.3 11.7
18:30 1015 29.97 844 24.92 0.2 32.3 41 -11.6 11.2
18:35 1015 29.97 845 24.95 0.3 32.5 37 -12.8 8.9
18:40 1015 29.97 845 24.95 0.3 32.6 34 -13.9 7.1
18:45 1015 29.97 845 24.95 0.4 32.7 31 -14.9 5.2
18:50 1015 29.97 845 24.95 0.5 32.8 30 -15 4.9
18:55 1015 29.97 845 24.95 0.4 32.7 31 -14.7 5.6
19:00 1016 30 845 24.95 0.3 32.5 31 -14.9 5.1
19:05 1016 30 845 24.95 0.2 32.3 32 -14.8 5.4
19:10 1016 30 845 24.95 -0 31.9 33 -14.5 6
19:15 1016 30 845 24.95 -0.3 31.5 35 -14 6.7
19:20 1016 30 845 24.95 -0.5 31.1 37 -13.5 7.7
19:25 1016 30 845 24.95 -0.8 30.6 39 -13.2 8.2
19:30 1016 30 845 24.95 -1 30.2 39 -13.4 7.9
19:35 1016 30 845 24.95 -1.1 29.9 40 -13.2 8.2
19:40 1016 30 845 24.95 -1.2 29.8 39 -13.5 7.7
19:45 1016 30 845 24.95 -1.3 29.7 39 -13.5 7.7
19:50 1016 30 845 24.95 -1.3 29.6 40 -13.3 8.1
19:55 1016 30 845 24.95 -1.4 29.4 40 -13.5 7.7
20:00 1016 30 845 24.95 -1.5 29.4 40 -13.5 7.7
20:05 1016 30 846 24.98 -1.5 29.2 41 -13.2 8.2
20:10 1017 30.03 846 24.98 -1.7 29 40 -13.5 7.7
20:15 1017 30.03 846 24.98 -2.1 28.3 49 -11.5 11.4
20:20 1017 30.03 846 24.98 -3 26.6 48 -12.4 9.6
20:25 1017 30.03 846 24.98 -3.1 26.4 48 -12.7 9.2
20:30 1017 30.03 846 24.98 -3 26.6 44 -13.6 7.6
20:35 1017 30.03 846 24.98 -2.5 27.5 44 -13.2 8.3
20:40 1017 30.03 846 24.98 -2.9 26.8 46 -13 8.6
20:45 1017 30.03 846 24.98 -2.9 26.7 44 -13.6 7.6
20:50 1017 30.03 846 24.98 -2.8 26.9 45 -13.2 8.2
20:55 1017 30.03 846 24.98 -2.9 26.8 44 -13.5 7.7
21:00 1017 30.03 847 25.01 -2.7 27.2 41 -14.1 6.7
21:05 1017 30.03 847 25.01 -2.3 27.8 41 -13.9 7
21:10 1018 30.06 847 25.01 -2.4 27.7 41 -13.9 6.9
21:15 1018 30.06 847 25.01 -2.5 27.6 43 -13.4 7.9
21:20 1018 30.06 847 25.01 -2.5 27.4 41 -14.2 6.5
21:25 1018 30.06 847 25.01 -2.6 27.3 42 -14 6.9
21:30 1018 30.06 847 25.01 -2.5 27.5 41 -14.2 6.4
21:35 1018 30.06 847 25.01 -2.5 27.5 40 -14.4 6.1
21:40 1018 30.06 847 25.01 -2.4 27.7 39 -14.4 6.1
21:45 1018 30.06 847 25.01 -2.4 27.6 40 -14.2 6.4
21:50 1018 30.06 847 25.01 -2.6 27.4 41 -14.2 6.4
21:55 1018 30.06 847 25.01 -2.4 27.7 39 -14.6 5.8
22:00 1018 30.06 847 25.01 -2.3 27.8 39 -14.4 6.1
22:05 1018 30.06 847 25.01 -2.4 27.7 40 -14.2 6.4
22:10 1018 30.06 847 25.01 -2.5 27.5 40 -14.3 6.3
22:15 1018 30.06 847 25.01 -2.7 27.2 41 -14.2 6.5
22:20 1018 30.06 847 25.01 -2.5 27.5 40 -14.5 5.9
22:25 1018 30.06 847 25.01 -2.4 27.7 41 -14 6.8
22:30 1018 30.06 848 25.04 -3.1 26.4 46 -13.1 8.3
22:35 1018 30.06 848 25.04 -5 23 50 -13.8 7.1
22:40 1018 30.06 848 25.04 -5.6 22 52 -13.9 7
22:45 1019 30.09 848 25.04 -5.4 22.2 50 -14.2 6.5
22:50 1019 30.09 848 25.04 -4.9 23.3 49 -13.9 7
22:55 1018 30.06 848 25.04 -4.6 23.7 49 -13.9 7
23:00 1018 30.06 848 25.04 -4.4 24 49 -13.7 7.3
23:05 1019 30.09 848 25.04 -5 22.9 52 -13.6 7.6
23:10 1018 30.06 848 25.04 -5.9 21.3 54 -13.9 7
23:15 1018 30.06 848 25.04 -5.7 21.7 51 -14.3 6.3
23:20 1019 30.09 848 25.04 -5.2 22.6 50 -14.1 6.7
23:25 1019 30.09 848 25.04 -5 22.9 48 -14.4 6.1
23:30 1019 30.09 848 25.04 -4.6 23.6 47 -14.3 6.3
23:35 1019 30.09 848 25.04 -4.6 23.7 47 -14.2 6.4
23:40 1019 30.09 848 25.04 -4.6 23.8 47 -14.2 6.5
23:45 1019 30.09 849 25.07 -4.5 23.8 48 -13.9 6.9
23:50 1019 30.09 849 25.07 -4.6 23.7 47 -14.3 6.3
23:55 1019 30.09 849 25.07 -4.6 23.6 48 -14.1 6.7
24:00 1019 30.09 849 25.07 -4.8 23.3 48 -14.1 6.6